Weather at UNFICYP OP123 Heliport

Public forecast

Using degrees Celsius for public forecast. Weather courtesy of forecast.io.

Closest aviation weather report (METAR) to UNFICYP OP123 Heliport

Closest report is Larnaca International Airport, 9.3 nm (17.3 km) S.

2022/12/04 05:00 (retrieved 37 minutes ago)

LCLK 040500Z 28007KT 9999 FEW025 13/11 Q1020 NOSIG

Closest aviation forecast (TAF) to UNFICYP OP123 Heliport

Forecast is more than 12 hours old.

Closest forecast is Bassel Al-Assad International Airport, 114.6 nm (212.3 km) ENE.

2022/12/02 06:36 (retrieved 2 days ago)

TAF TAF OSLK 020400Z 0206/0306 16012KT 9999 FEW030 TEMPO 0218/0306 06010KT